sensor_id;sensor_type;location;lat;lon;timestamp;P1;durP1;ratioP1;P2;durP2;ratioP2
3971;SDS011;2000;47.572;14.202;2022-12-16T00:02:09;24.60;;;12.33;;
3971;SDS011;2000;47.572;14.202;2022-12-16T00:04:35;40.70;;;14.80;;
3971;SDS011;2000;47.572;14.202;2022-12-16T00:07:02;32.13;;;13.23;;
3971;SDS011;2000;47.572;14.202;2022-12-16T00:09:29;31.80;;;14.53;;
3971;SDS011;2000;47.572;14.202;2022-12-16T00:11:55;26.33;;;12.30;;
3971;SDS011;2000;47.572;14.202;2022-12-16T00:14:22;22.30;;;11.20;;
3971;SDS011;2000;47.572;14.202;2022-12-16T00:16:49;23.73;;;11.20;;
3971;SDS011;2000;47.572;14.202;2022-12-16T00:19:15;31.80;;;12.67;;
3971;SDS011;2000;47.572;14.202;2022-12-16T00:21:42;48.90;;;12.50;;
3971;SDS011;2000;47.572;14.202;2022-12-16T00:24:09;19.87;;;10.47;;
3971;SDS011;2000;47.572;14.202;2022-12-16T00:26:35;37.93;;;11.77;;
3971;SDS011;2000;47.572;14.202;2022-12-16T00:29:02;23.73;;;10.77;;
3971;SDS011;2000;47.572;14.202;2022-12-16T00:31:32;22.07;;;11.10;;
3971;SDS011;2000;47.572;14.202;2022-12-16T00:33:58;12.37;;;7.47;;
3971;SDS011;2000;47.572;14.202;2022-12-16T00:36:25;13.67;;;7.57;;
3971;SDS011;2000;47.572;14.202;2022-12-16T00:38:52;13.13;;;7.20;;
3971;SDS011;2000;47.572;14.202;2022-12-16T00:41:18;48.47;;;10.87;;
3971;SDS011;2000;47.572;14.202;2022-12-16T00:43:45;19.63;;;9.17;;
3971;SDS011;2000;47.572;14.202;2022-12-16T00:46:12;15.97;;;8.10;;
3971;SDS011;2000;47.572;14.202;2022-12-16T00:48:39;16.83;;;9.90;;
3971;SDS011;2000;47.572;14.202;2022-12-16T00:51:06;18.83;;;9.83;;
3971;SDS011;2000;47.572;14.202;2022-12-16T00:53:33;18.13;;;9.00;;
3971;SDS011;2000;47.572;14.202;2022-12-16T00:56:05;24.27;;;10.33;;
3971;SDS011;2000;47.572;14.202;2022-12-16T00:58:35;14.47;;;9.03;;
3971;SDS011;2000;47.572;14.202;2022-12-16T01:01:03;24.00;;;9.53;;
3971;SDS011;2000;47.572;14.202;2022-12-16T01:03:30;22.13;;;8.77;;
3971;SDS011;2000;47.572;14.202;2022-12-16T01:05:57;13.83;;;8.03;;
3971;SDS011;2000;47.572;14.202;2022-12-16T01:08:24;24.60;;;11.27;;
3971;SDS011;2000;47.572;14.202;2022-12-16T01:10:52;19.70;;;9.50;;
3971;SDS011;2000;47.572;14.202;2022-12-16T01:13:21;21.10;;;10.00;;
3971;SDS011;2000;47.572;14.202;2022-12-16T01:15:49;20.70;;;8.83;;
3971;SDS011;2000;47.572;14.202;2022-12-16T01:18:17;23.80;;;10.60;;
3971;SDS011;2000;47.572;14.202;2022-12-16T01:20:44;29.60;;;10.30;;
3971;SDS011;2000;47.572;14.202;2022-12-16T01:23:10;15.97;;;9.43;;
3971;SDS011;2000;47.572;14.202;2022-12-16T01:25:37;24.00;;;10.07;;
3971;SDS011;2000;47.572;14.202;2022-12-16T01:28:04;14.97;;;8.37;;
3971;SDS011;2000;47.572;14.202;2022-12-16T01:30:30;21.13;;;10.17;;
3971;SDS011;2000;47.572;14.202;2022-12-16T01:32:57;14.23;;;9.23;;
3971;SDS011;2000;47.572;14.202;2022-12-16T01:35:23;16.00;;;9.47;;
3971;SDS011;2000;47.572;14.202;2022-12-16T01:38:10;19.23;;;9.40;;
3971;SDS011;2000;47.572;14.202;2022-12-16T01:40:37;20.67;;;8.70;;
3971;SDS011;2000;47.572;14.202;2022-12-16T01:43:08;18.03;;;7.80;;
3971;SDS011;2000;47.572;14.202;2022-12-16T01:45:37;18.23;;;8.50;;
3971;SDS011;2000;47.572;14.202;2022-12-16T01:48:50;19.83;;;9.30;;
3971;SDS011;2000;47.572;14.202;2022-12-16T01:51:16;19.77;;;9.40;;
3971;SDS011;2000;47.572;14.202;2022-12-16T01:53:50;12.77;;;7.37;;
3971;SDS011;2000;47.572;14.202;2022-12-16T01:56:21;16.50;;;7.97;;
3971;SDS011;2000;47.572;14.202;2022-12-16T01:58:49;16.47;;;8.80;;
3971;SDS011;2000;47.572;14.202;2022-12-16T02:01:17;12.70;;;6.50;;
3971;SDS011;2000;47.572;14.202;2022-12-16T02:03:44;12.10;;;8.00;;
3971;SDS011;2000;47.572;14.202;2022-12-16T02:06:11;13.40;;;8.50;;
3971;SDS011;2000;47.572;14.202;2022-12-16T02:08:38;17.13;;;8.87;;
3971;SDS011;2000;47.572;14.202;2022-12-16T02:11:18;15.13;;;7.90;;
3971;SDS011;2000;47.572;14.202;2022-12-16T02:39:51;14.83;;;8.00;;
3971;SDS011;2000;47.572;14.202;2022-12-16T02:42:22;13.50;;;7.77;;
3971;SDS011;2000;47.572;14.202;2022-12-16T02:45:10;13.30;;;7.07;;
3971;SDS011;2000;47.572;14.202;2022-12-16T02:47:40;15.73;;;6.60;;
3971;SDS011;2000;47.572;14.202;2022-12-16T02:50:25;21.30;;;8.10;;
3971;SDS011;2000;47.572;14.202;2022-12-16T02:52:55;16.90;;;7.60;;
3971;SDS011;2000;47.572;14.202;2022-12-16T02:55:26;12.90;;;7.90;;
3971;SDS011;2000;47.572;14.202;2022-12-16T03:00:37;13.70;;;7.83;;
3971;SDS011;2000;47.572;14.202;2022-12-16T03:03:09;25.57;;;8.00;;
3971;SDS011;2000;47.572;14.202;2022-12-16T03:05:43;16.77;;;7.70;;
3971;SDS011;2000;47.572;14.202;2022-12-16T03:08:14;17.10;;;8.00;;
3971;SDS011;2000;47.572;14.202;2022-12-16T03:10:53;12.90;;;7.57;;
3971;SDS011;2000;47.572;14.202;2022-12-16T03:13:23;31.00;;;8.60;;
3971;SDS011;2000;47.572;14.202;2022-12-16T03:15:51;18.63;;;9.27;;
3971;SDS011;2000;47.572;14.202;2022-12-16T03:18:19;18.37;;;8.27;;
3971;SDS011;2000;47.572;14.202;2022-12-16T03:21:04;17.33;;;8.37;;
3971;SDS011;2000;47.572;14.202;2022-12-16T03:23:34;20.23;;;8.13;;
3971;SDS011;2000;47.572;14.202;2022-12-16T03:26:06;21.27;;;8.20;;
3971;SDS011;2000;47.572;14.202;2022-12-16T03:28:39;20.17;;;8.13;;
3971;SDS011;2000;47.572;14.202;2022-12-16T03:31:15;20.87;;;8.60;;
3971;SDS011;2000;47.572;14.202;2022-12-16T03:33:50;23.40;;;6.27;;
3971;SDS011;2000;47.572;14.202;2022-12-16T03:36:21;20.40;;;7.30;;
3971;SDS011;2000;47.572;14.202;2022-12-16T03:38:50;25.40;;;6.53;;
3971;SDS011;2000;47.572;14.202;2022-12-16T03:41:17;12.00;;;7.00;;
3971;SDS011;2000;47.572;14.202;2022-12-16T03:43:46;30.20;;;7.43;;
3971;SDS011;2000;47.572;14.202;2022-12-16T03:46:14;16.40;;;7.13;;
3971;SDS011;2000;47.572;14.202;2022-12-16T03:48:46;26.83;;;8.50;;
3971;SDS011;2000;47.572;14.202;2022-12-16T03:51:16;31.67;;;8.80;;
3971;SDS011;2000;47.572;14.202;2022-12-16T03:53:44;17.87;;;6.77;;
3971;SDS011;2000;47.572;14.202;2022-12-16T03:56:11;12.10;;;6.40;;
3971;SDS011;2000;47.572;14.202;2022-12-16T03:58:38;15.37;;;6.40;;
3971;SDS011;2000;47.572;14.202;2022-12-16T04:01:06;17.33;;;7.00;;
3971;SDS011;2000;47.572;14.202;2022-12-16T04:03:35;18.50;;;5.80;;
3971;SDS011;2000;47.572;14.202;2022-12-16T04:06:03;13.50;;;6.57;;
3971;SDS011;2000;47.572;14.202;2022-12-16T04:08:30;10.10;;;5.70;;
3971;SDS011;2000;47.572;14.202;2022-12-16T04:10:56;14.00;;;6.63;;
3971;SDS011;2000;47.572;14.202;2022-12-16T04:13:56;16.83;;;6.90;;
3971;SDS011;2000;47.572;14.202;2022-12-16T04:16:42;16.23;;;6.00;;
3971;SDS011;2000;47.572;14.202;2022-12-16T04:19:29;14.33;;;4.90;;
3971;SDS011;2000;47.572;14.202;2022-12-16T04:22:24;11.63;;;5.10;;
3971;SDS011;2000;47.572;14.202;2022-12-16T04:25:15;11.50;;;5.00;;
3971;SDS011;2000;47.572;14.202;2022-12-16T04:27:44;12.00;;;6.47;;
3971;SDS011;2000;47.572;14.202;2022-12-16T04:30:14;10.00;;;5.47;;
3971;SDS011;2000;47.572;14.202;2022-12-16T04:35:38;24.53;;;5.87;;
3971;SDS011;2000;47.572;14.202;2022-12-16T04:38:23;13.87;;;7.33;;
3971;SDS011;2000;47.572;14.202;2022-12-16T04:41:09;12.30;;;6.03;;
3971;SDS011;2000;47.572;14.202;2022-12-16T04:43:55;9.53;;;5.10;;
3971;SDS011;2000;47.572;14.202;2022-12-16T04:46:40;14.20;;;6.97;;
3971;SDS011;2000;47.572;14.202;2022-12-16T04:49:25;10.57;;;5.30;;
3971;SDS011;2000;47.572;14.202;2022-12-16T04:52:11;11.63;;;5.60;;
3971;SDS011;2000;47.572;14.202;2022-12-16T04:54:57;14.47;;;5.43;;
3971;SDS011;2000;47.572;14.202;2022-12-16T04:57:58;17.57;;;5.60;;
3971;SDS011;2000;47.572;14.202;2022-12-16T05:00:45;12.10;;;5.43;;
3971;SDS011;2000;47.572;14.202;2022-12-16T05:03:31;12.20;;;5.70;;
3971;SDS011;2000;47.572;14.202;2022-12-16T05:06:17;9.87;;;5.00;;
3971;SDS011;2000;47.572;14.202;2022-12-16T05:09:02;17.03;;;5.80;;
3971;SDS011;2000;47.572;14.202;2022-12-16T05:11:48;9.57;;;5.10;;
3971;SDS011;2000;47.572;14.202;2022-12-16T05:14:34;7.90;;;4.33;;
3971;SDS011;2000;47.572;14.202;2022-12-16T05:17:19;21.63;;;9.37;;
3971;SDS011;2000;47.572;14.202;2022-12-16T05:20:05;27.67;;;12.90;;
3971;SDS011;2000;47.572;14.202;2022-12-16T05:22:51;12.83;;;5.87;;
3971;SDS011;2000;47.572;14.202;2022-12-16T05:25:39;13.90;;;6.47;;
3971;SDS011;2000;47.572;14.202;2022-12-16T05:28:24;19.23;;;7.97;;
3971;SDS011;2000;47.572;14.202;2022-12-16T05:31:09;14.30;;;7.23;;
3971;SDS011;2000;47.572;14.202;2022-12-16T05:33:55;17.17;;;6.67;;
3971;SDS011;2000;47.572;14.202;2022-12-16T05:36:40;13.60;;;6.90;;
3971;SDS011;2000;47.572;14.202;2022-12-16T05:39:25;13.23;;;5.87;;
3971;SDS011;2000;47.572;14.202;2022-12-16T05:42:10;26.33;;;5.43;;
3971;SDS011;2000;47.572;14.202;2022-12-16T05:44:55;9.10;;;5.30;;
3971;SDS011;2000;47.572;14.202;2022-12-16T05:47:40;8.00;;;5.03;;
3971;SDS011;2000;47.572;14.202;2022-12-16T05:50:26;10.20;;;5.47;;
3971;SDS011;2000;47.572;14.202;2022-12-16T05:53:11;16.10;;;5.10;;
3971;SDS011;2000;47.572;14.202;2022-12-16T05:55:57;8.40;;;5.03;;
3971;SDS011;2000;47.572;14.202;2022-12-16T05:58:42;10.53;;;4.67;;
3971;SDS011;2000;47.572;14.202;2022-12-16T06:01:27;6.30;;;4.60;;
3971;SDS011;2000;47.572;14.202;2022-12-16T06:04:13;7.40;;;4.20;;
3971;SDS011;2000;47.572;14.202;2022-12-16T06:06:58;7.03;;;3.80;;
3971;SDS011;2000;47.572;14.202;2022-12-16T06:09:43;7.73;;;4.40;;
3971;SDS011;2000;47.572;14.202;2022-12-16T06:12:29;6.27;;;3.43;;
3971;SDS011;2000;47.572;14.202;2022-12-16T06:15:14;12.30;;;4.13;;
3971;SDS011;2000;47.572;14.202;2022-12-16T06:17:59;8.37;;;3.87;;
3971;SDS011;2000;47.572;14.202;2022-12-16T06:20:44;12.80;;;4.80;;
3971;SDS011;2000;47.572;14.202;2022-12-16T06:23:29;9.17;;;4.50;;
3971;SDS011;2000;47.572;14.202;2022-12-16T06:26:15;6.73;;;3.83;;
3971;SDS011;2000;47.572;14.202;2022-12-16T06:29:00;8.50;;;4.83;;
3971;SDS011;2000;47.572;14.202;2022-12-16T06:31:46;6.30;;;4.00;;
3971;SDS011;2000;47.572;14.202;2022-12-16T06:34:31;8.20;;;4.40;;
3971;SDS011;2000;47.572;14.202;2022-12-16T06:37:17;15.17;;;7.10;;
3971;SDS011;2000;47.572;14.202;2022-12-16T06:40:02;8.23;;;5.30;;
3971;SDS011;2000;47.572;14.202;2022-12-16T06:42:48;12.30;;;6.10;;
3971;SDS011;2000;47.572;14.202;2022-12-16T06:45:33;14.70;;;5.80;;
3971;SDS011;2000;47.572;14.202;2022-12-16T06:48:19;10.57;;;6.03;;
3971;SDS011;2000;47.572;14.202;2022-12-16T06:51:04;12.10;;;5.30;;
3971;SDS011;2000;47.572;14.202;2022-12-16T06:53:50;10.27;;;5.33;;
3971;SDS011;2000;47.572;14.202;2022-12-16T06:56:34;16.33;;;6.17;;
3971;SDS011;2000;47.572;14.202;2022-12-16T06:59:34;13.80;;;6.83;;
3971;SDS011;2000;47.572;14.202;2022-12-16T07:02:20;8.73;;;5.33;;
3971;SDS011;2000;47.572;14.202;2022-12-16T07:05:06;13.27;;;7.33;;
3971;SDS011;2000;47.572;14.202;2022-12-16T07:07:52;9.60;;;5.77;;
3971;SDS011;2000;47.572;14.202;2022-12-16T07:10:37;10.60;;;6.67;;
3971;SDS011;2000;47.572;14.202;2022-12-16T07:13:38;15.17;;;7.60;;
3971;SDS011;2000;47.572;14.202;2022-12-16T07:16:24;14.30;;;8.03;;
3971;SDS011;2000;47.572;14.202;2022-12-16T07:19:09;17.93;;;9.80;;
3971;SDS011;2000;47.572;14.202;2022-12-16T07:22:09;16.67;;;8.73;;
3971;SDS011;2000;47.572;14.202;2022-12-16T07:24:54;9.80;;;6.70;;
3971;SDS011;2000;47.572;14.202;2022-12-16T07:27:43;10.40;;;6.77;;
3971;SDS011;2000;47.572;14.202;2022-12-16T07:30:30;37.03;;;12.17;;
3971;SDS011;2000;47.572;14.202;2022-12-16T07:33:15;26.43;;;13.93;;
3971;SDS011;2000;47.572;14.202;2022-12-16T07:36:02;53.00;;;17.70;;
3971;SDS011;2000;47.572;14.202;2022-12-16T07:38:48;40.83;;;18.90;;
3971;SDS011;2000;47.572;14.202;2022-12-16T07:41:33;39.60;;;16.50;;
3971;SDS011;2000;47.572;14.202;2022-12-16T07:44:19;33.00;;;17.37;;
3971;SDS011;2000;47.572;14.202;2022-12-16T07:47:04;27.27;;;15.30;;
3971;SDS011;2000;47.572;14.202;2022-12-16T07:49:50;25.67;;;14.80;;
3971;SDS011;2000;47.572;14.202;2022-12-16T07:52:35;20.93;;;10.83;;
3971;SDS011;2000;47.572;14.202;2022-12-16T07:55:20;32.20;;;11.40;;
3971;SDS011;2000;47.572;14.202;2022-12-16T07:58:06;15.30;;;9.60;;
3971;SDS011;2000;47.572;14.202;2022-12-16T08:00:52;25.10;;;10.37;;
3971;SDS011;2000;47.572;14.202;2022-12-16T08:03:37;24.37;;;10.90;;
3971;SDS011;2000;47.572;14.202;2022-12-16T08:06:23;15.50;;;9.77;;
3971;SDS011;2000;47.572;14.202;2022-12-16T08:09:08;20.03;;;11.27;;
3971;SDS011;2000;47.572;14.202;2022-12-16T08:11:53;20.23;;;10.97;;
3971;SDS011;2000;47.572;14.202;2022-12-16T08:14:38;19.67;;;10.63;;
3971;SDS011;2000;47.572;14.202;2022-12-16T08:17:24;24.00;;;10.13;;
3971;SDS011;2000;47.572;14.202;2022-12-16T08:20:09;17.10;;;8.77;;
3971;SDS011;2000;47.572;14.202;2022-12-16T08:22:55;12.87;;;7.20;;
3971;SDS011;2000;47.572;14.202;2022-12-16T08:25:40;10.77;;;5.70;;
3971;SDS011;2000;47.572;14.202;2022-12-16T08:28:25;9.93;;;6.03;;
3971;SDS011;2000;47.572;14.202;2022-12-16T08:31:11;12.13;;;6.63;;
3971;SDS011;2000;47.572;14.202;2022-12-16T08:33:56;20.57;;;10.17;;
3971;SDS011;2000;47.572;14.202;2022-12-16T08:36:42;26.53;;;14.17;;
3971;SDS011;2000;47.572;14.202;2022-12-16T08:39:27;35.20;;;12.43;;
3971;SDS011;2000;47.572;14.202;2022-12-16T08:42:29;19.10;;;10.10;;
3971;SDS011;2000;47.572;14.202;2022-12-16T08:45:15;19.70;;;8.40;;
3971;SDS011;2000;47.572;14.202;2022-12-16T08:48:00;18.67;;;8.30;;
3971;SDS011;2000;47.572;14.202;2022-12-16T08:50:46;23.57;;;9.07;;
3971;SDS011;2000;47.572;14.202;2022-12-16T08:53:31;37.13;;;10.07;;
3971;SDS011;2000;47.572;14.202;2022-12-16T08:56:17;23.53;;;9.67;;
3971;SDS011;2000;47.572;14.202;2022-12-16T08:59:02;24.40;;;9.07;;
3971;SDS011;2000;47.572;14.202;2022-12-16T09:01:48;23.60;;;9.50;;
3971;SDS011;2000;47.572;14.202;2022-12-16T09:04:34;17.93;;;9.33;;
3971;SDS011;2000;47.572;14.202;2022-12-16T09:07:21;23.20;;;10.93;;
3971;SDS011;2000;47.572;14.202;2022-12-16T09:10:07;23.23;;;10.00;;
3971;SDS011;2000;47.572;14.202;2022-12-16T09:13:09;27.80;;;12.50;;
3971;SDS011;2000;47.572;14.202;2022-12-16T09:15:57;18.07;;;9.80;;
3971;SDS011;2000;47.572;14.202;2022-12-16T09:18:45;19.13;;;10.17;;
3971;SDS011;2000;47.572;14.202;2022-12-16T09:21:30;20.43;;;9.07;;
3971;SDS011;2000;47.572;14.202;2022-12-16T09:24:16;21.80;;;9.70;;
3971;SDS011;2000;47.572;14.202;2022-12-16T09:27:02;20.50;;;9.67;;
3971;SDS011;2000;47.572;14.202;2022-12-16T09:29:47;20.10;;;10.53;;
3971;SDS011;2000;47.572;14.202;2022-12-16T09:32:34;19.50;;;9.90;;
3971;SDS011;2000;47.572;14.202;2022-12-16T09:35:19;30.33;;;12.30;;
3971;SDS011;2000;47.572;14.202;2022-12-16T09:38:05;23.50;;;12.13;;
3971;SDS011;2000;47.572;14.202;2022-12-16T09:40:50;27.53;;;10.40;;
3971;SDS011;2000;47.572;14.202;2022-12-16T09:43:43;17.20;;;8.40;;
3971;SDS011;2000;47.572;14.202;2022-12-16T09:46:42;14.43;;;9.60;;
3971;SDS011;2000;47.572;14.202;2022-12-16T09:49:51;19.17;;;9.43;;
3971;SDS011;2000;47.572;14.202;2022-12-16T09:55:30;16.97;;;9.80;;
3971;SDS011;2000;47.572;14.202;2022-12-16T09:58:18;18.80;;;10.00;;
3971;SDS011;2000;47.572;14.202;2022-12-16T10:01:11;20.67;;;10.07;;
3971;SDS011;2000;47.572;14.202;2022-12-16T10:03:58;16.77;;;8.80;;
3971;SDS011;2000;47.572;14.202;2022-12-16T10:06:44;20.97;;;10.00;;
3971;SDS011;2000;47.572;14.202;2022-12-16T10:13:02;18.33;;;9.80;;
3971;SDS011;2000;47.572;14.202;2022-12-16T10:22:12;15.30;;;9.27;;
3971;SDS011;2000;47.572;14.202;2022-12-16T10:25:02;17.93;;;10.13;;
3971;SDS011;2000;47.572;14.202;2022-12-16T10:31:20;25.20;;;11.53;;
3971;SDS011;2000;47.572;14.202;2022-12-16T10:34:09;20.87;;;11.23;;
3971;SDS011;2000;47.572;14.202;2022-12-16T10:36:57;26.00;;;12.80;;
3971;SDS011;2000;47.572;14.202;2022-12-16T10:39:55;23.53;;;10.43;;
3971;SDS011;2000;47.572;14.202;2022-12-16T10:42:56;19.40;;;10.97;;
3971;SDS011;2000;47.572;14.202;2022-12-16T10:45:49;20.97;;;11.20;;
3971;SDS011;2000;47.572;14.202;2022-12-16T10:48:36;20.30;;;9.90;;
3971;SDS011;2000;47.572;14.202;2022-12-16T10:51:23;22.80;;;11.00;;
3971;SDS011;2000;47.572;14.202;2022-12-16T11:01:00;22.13;;;10.53;;
3971;SDS011;2000;47.572;14.202;2022-12-16T11:03:34;23.77;;;11.77;;
3971;SDS011;2000;47.572;14.202;2022-12-16T11:06:27;23.03;;;9.50;;
3971;SDS011;2000;47.572;14.202;2022-12-16T11:09:27;21.77;;;9.87;;
3971;SDS011;2000;47.572;14.202;2022-12-16T11:15:29;18.47;;;9.40;;
3971;SDS011;2000;47.572;14.202;2022-12-16T11:18:17;15.50;;;8.53;;
3971;SDS011;2000;47.572;14.202;2022-12-16T11:27:03;23.30;;;11.00;;
3971;SDS011;2000;47.572;14.202;2022-12-16T11:30:12;16.57;;;10.47;;
3971;SDS011;2000;47.572;14.202;2022-12-16T11:33:13;23.33;;;11.23;;
3971;SDS011;2000;47.572;14.202;2022-12-16T11:36:36;17.83;;;11.00;;
3971;SDS011;2000;47.572;14.202;2022-12-16T11:39:16;25.33;;;11.73;;
3971;SDS011;2000;47.572;14.202;2022-12-16T11:42:03;18.57;;;9.83;;
3971;SDS011;2000;47.572;14.202;2022-12-16T11:44:54;27.63;;;14.37;;
3971;SDS011;2000;47.572;14.202;2022-12-16T11:47:43;23.57;;;12.60;;
3971;SDS011;2000;47.572;14.202;2022-12-16T11:50:31;27.10;;;13.10;;
3971;SDS011;2000;47.572;14.202;2022-12-16T11:53:34;22.57;;;11.70;;
3971;SDS011;2000;47.572;14.202;2022-12-16T11:56:25;20.67;;;11.57;;
3971;SDS011;2000;47.572;14.202;2022-12-16T12:02:44;27.07;;;12.70;;
3971;SDS011;2000;47.572;14.202;2022-12-16T12:05:42;31.30;;;14.30;;
3971;SDS011;2000;47.572;14.202;2022-12-16T12:11:42;22.20;;;12.90;;
3971;SDS011;2000;47.572;14.202;2022-12-16T12:14:38;25.90;;;11.63;;
3971;SDS011;2000;47.572;14.202;2022-12-16T12:17:36;21.70;;;11.50;;
3971;SDS011;2000;47.572;14.202;2022-12-16T12:26:25;23.07;;;10.40;;
3971;SDS011;2000;47.572;14.202;2022-12-16T12:32:32;24.17;;;12.23;;
3971;SDS011;2000;47.572;14.202;2022-12-16T12:41:59;17.60;;;10.10;;
3971;SDS011;2000;47.572;14.202;2022-12-16T12:45:03;20.50;;;10.30;;
3971;SDS011;2000;47.572;14.202;2022-12-16T12:48:12;30.93;;;12.00;;
3971;SDS011;2000;47.572;14.202;2022-12-16T12:51:44;26.27;;;12.17;;
3971;SDS011;2000;47.572;14.202;2022-12-16T12:58:05;23.80;;;12.30;;
3971;SDS011;2000;47.572;14.202;2022-12-16T13:00:52;22.57;;;12.60;;
3971;SDS011;2000;47.572;14.202;2022-12-16T13:03:46;22.83;;;12.30;;
3971;SDS011;2000;47.572;14.202;2022-12-16T13:06:34;22.83;;;12.20;;
3971;SDS011;2000;47.572;14.202;2022-12-16T13:09:22;20.47;;;10.43;;
3971;SDS011;2000;47.572;14.202;2022-12-16T13:20:45;17.63;;;10.00;;
3971;SDS011;2000;47.572;14.202;2022-12-16T13:23:35;21.43;;;9.70;;
3971;SDS011;2000;47.572;14.202;2022-12-16T13:26:23;20.80;;;10.10;;
3971;SDS011;2000;47.572;14.202;2022-12-16T13:31:58;21.03;;;10.70;;
3971;SDS011;2000;47.572;14.202;2022-12-16T13:37:55;27.13;;;10.80;;
3971;SDS011;2000;47.572;14.202;2022-12-16T13:40:52;20.67;;;11.33;;
3971;SDS011;2000;47.572;14.202;2022-12-16T13:43:48;22.87;;;11.60;;
3971;SDS011;2000;47.572;14.202;2022-12-16T13:46:43;26.73;;;11.37;;
3971;SDS011;2000;47.572;14.202;2022-12-16T13:52:22;23.70;;;12.13;;
3971;SDS011;2000;47.572;14.202;2022-12-16T13:55:12;19.33;;;9.77;;
3971;SDS011;2000;47.572;14.202;2022-12-16T13:58:05;25.63;;;12.03;;
3971;SDS011;2000;47.572;14.202;2022-12-16T14:01:01;22.67;;;10.60;;
3971;SDS011;2000;47.572;14.202;2022-12-16T14:03:50;20.43;;;10.57;;
3971;SDS011;2000;47.572;14.202;2022-12-16T14:06:36;21.20;;;11.80;;
3971;SDS011;2000;47.572;14.202;2022-12-16T14:09:41;20.17;;;11.50;;
3971;SDS011;2000;47.572;14.202;2022-12-16T14:18:25;22.03;;;11.20;;
3971;SDS011;2000;47.572;14.202;2022-12-16T14:21:24;22.17;;;11.33;;
3971;SDS011;2000;47.572;14.202;2022-12-16T14:24:23;25.30;;;12.53;;
3971;SDS011;2000;47.572;14.202;2022-12-16T14:27:15;21.73;;;11.53;;
3971;SDS011;2000;47.572;14.202;2022-12-16T14:30:15;25.17;;;12.97;;
3971;SDS011;2000;47.572;14.202;2022-12-16T14:36:26;26.53;;;13.63;;
3971;SDS011;2000;47.572;14.202;2022-12-16T14:39:22;20.53;;;12.57;;
3971;SDS011;2000;47.572;14.202;2022-12-16T14:42:22;24.77;;;14.43;;
3971;SDS011;2000;47.572;14.202;2022-12-16T14:57:15;23.83;;;12.40;;
3971;SDS011;2000;47.572;14.202;2022-12-16T15:02:53;19.60;;;10.97;;
3971;SDS011;2000;47.572;14.202;2022-12-16T15:05:44;21.47;;;10.83;;
3971;SDS011;2000;47.572;14.202;2022-12-16T15:08:32;16.53;;;10.10;;
3971;SDS011;2000;47.572;14.202;2022-12-16T15:11:21;27.37;;;12.13;;
3971;SDS011;2000;47.572;14.202;2022-12-16T15:14:09;17.40;;;10.07;;
3971;SDS011;2000;47.572;14.202;2022-12-16T15:16:56;19.47;;;10.07;;
3971;SDS011;2000;47.572;14.202;2022-12-16T15:19:42;21.67;;;9.47;;
3971;SDS011;2000;47.572;14.202;2022-12-16T15:22:30;19.93;;;11.87;;
3971;SDS011;2000;47.572;14.202;2022-12-16T15:25:17;25.10;;;12.00;;
3971;SDS011;2000;47.572;14.202;2022-12-16T15:28:21;25.13;;;13.60;;
3971;SDS011;2000;47.572;14.202;2022-12-16T15:31:11;20.97;;;10.90;;
3971;SDS011;2000;47.572;14.202;2022-12-16T15:37:37;58.87;;;27.20;;
3971;SDS011;2000;47.572;14.202;2022-12-16T15:40:30;31.60;;;15.97;;
3971;SDS011;2000;47.572;14.202;2022-12-16T15:43:26;20.87;;;10.73;;
3971;SDS011;2000;47.572;14.202;2022-12-16T15:46:23;23.37;;;13.13;;
3971;SDS011;2000;47.572;14.202;2022-12-16T15:49:24;18.67;;;11.70;;
3971;SDS011;2000;47.572;14.202;2022-12-16T15:55:36;20.90;;;12.83;;
3971;SDS011;2000;47.572;14.202;2022-12-16T15:58:34;15.57;;;9.03;;
3971;SDS011;2000;47.572;14.202;2022-12-16T16:01:24;26.40;;;12.23;;
3971;SDS011;2000;47.572;14.202;2022-12-16T16:07:16;20.33;;;10.20;;
3971;SDS011;2000;47.572;14.202;2022-12-16T16:10:16;17.93;;;9.50;;
3971;SDS011;2000;47.572;14.202;2022-12-16T16:13:03;16.33;;;9.27;;
3971;SDS011;2000;47.572;14.202;2022-12-16T16:15:48;20.73;;;9.47;;
3971;SDS011;2000;47.572;14.202;2022-12-16T16:18:34;13.20;;;7.73;;
3971;SDS011;2000;47.572;14.202;2022-12-16T16:21:20;18.47;;;8.60;;
3971;SDS011;2000;47.572;14.202;2022-12-16T16:24:06;11.60;;;7.37;;
3971;SDS011;2000;47.572;14.202;2022-12-16T16:26:54;16.00;;;8.77;;
3971;SDS011;2000;47.572;14.202;2022-12-16T16:29:40;14.33;;;8.13;;
3971;SDS011;2000;47.572;14.202;2022-12-16T16:32:25;22.90;;;9.87;;
3971;SDS011;2000;47.572;14.202;2022-12-16T16:35:11;17.97;;;9.27;;
3971;SDS011;2000;47.572;14.202;2022-12-16T16:37:56;14.17;;;8.07;;
3971;SDS011;2000;47.572;14.202;2022-12-16T16:40:44;16.53;;;8.87;;
3971;SDS011;2000;47.572;14.202;2022-12-16T16:43:29;13.03;;;8.00;;
3971;SDS011;2000;47.572;14.202;2022-12-16T16:49:05;18.80;;;8.67;;
3971;SDS011;2000;47.572;14.202;2022-12-16T16:51:53;13.33;;;6.83;;
3971;SDS011;2000;47.572;14.202;2022-12-16T16:54:38;13.67;;;7.20;;
3971;SDS011;2000;47.572;14.202;2022-12-16T16:57:29;14.87;;;8.13;;
3971;SDS011;2000;47.572;14.202;2022-12-16T17:00:17;14.80;;;8.57;;
3971;SDS011;2000;47.572;14.202;2022-12-16T17:03:03;12.20;;;8.40;;
3971;SDS011;2000;47.572;14.202;2022-12-16T17:05:49;17.93;;;10.47;;
3971;SDS011;2000;47.572;14.202;2022-12-16T17:08:34;16.90;;;9.80;;
3971;SDS011;2000;47.572;14.202;2022-12-16T17:11:20;19.80;;;11.67;;
3971;SDS011;2000;47.572;14.202;2022-12-16T17:14:10;21.13;;;10.33;;
3971;SDS011;2000;47.572;14.202;2022-12-16T17:17:00;18.90;;;8.70;;
3971;SDS011;2000;47.572;14.202;2022-12-16T17:19:46;12.73;;;7.47;;
3971;SDS011;2000;47.572;14.202;2022-12-16T17:22:31;15.90;;;9.47;;
3971;SDS011;2000;47.572;14.202;2022-12-16T17:25:17;13.73;;;8.87;;
3971;SDS011;2000;47.572;14.202;2022-12-16T17:28:03;18.20;;;9.17;;
3971;SDS011;2000;47.572;14.202;2022-12-16T17:30:48;12.47;;;8.20;;
3971;SDS011;2000;47.572;14.202;2022-12-16T17:33:34;14.67;;;8.23;;
3971;SDS011;2000;47.572;14.202;2022-12-16T17:36:20;10.47;;;7.73;;
3971;SDS011;2000;47.572;14.202;2022-12-16T17:39:05;17.97;;;7.30;;
3971;SDS011;2000;47.572;14.202;2022-12-16T17:41:52;11.40;;;6.30;;
3971;SDS011;2000;47.572;14.202;2022-12-16T17:44:37;12.30;;;6.27;;
3971;SDS011;2000;47.572;14.202;2022-12-16T17:47:23;8.80;;;5.53;;
3971;SDS011;2000;47.572;14.202;2022-12-16T17:50:09;12.57;;;7.50;;
3971;SDS011;2000;47.572;14.202;2022-12-16T17:52:54;12.80;;;6.30;;
3971;SDS011;2000;47.572;14.202;2022-12-16T17:55:41;13.93;;;7.97;;
3971;SDS011;2000;47.572;14.202;2022-12-16T17:58:33;16.77;;;9.20;;
3971;SDS011;2000;47.572;14.202;2022-12-16T18:01:20;16.60;;;9.53;;
3971;SDS011;2000;47.572;14.202;2022-12-16T18:04:07;18.90;;;11.30;;
3971;SDS011;2000;47.572;14.202;2022-12-16T18:06:53;22.90;;;12.30;;
3971;SDS011;2000;47.572;14.202;2022-12-16T18:09:38;45.90;;;18.00;;
3971;SDS011;2000;47.572;14.202;2022-12-16T18:12:23;36.60;;;17.27;;
3971;SDS011;2000;47.572;14.202;2022-12-16T18:15:09;26.43;;;14.20;;
3971;SDS011;2000;47.572;14.202;2022-12-16T18:17:56;18.87;;;9.30;;
3971;SDS011;2000;47.572;14.202;2022-12-16T18:20:41;15.33;;;7.90;;
3971;SDS011;2000;47.572;14.202;2022-12-16T18:23:29;12.17;;;7.90;;
3971;SDS011;2000;47.572;14.202;2022-12-16T18:26:15;15.80;;;9.00;;
3971;SDS011;2000;47.572;14.202;2022-12-16T18:29:05;21.63;;;9.97;;
3971;SDS011;2000;47.572;14.202;2022-12-16T18:31:50;23.53;;;11.80;;
3971;SDS011;2000;47.572;14.202;2022-12-16T18:34:35;22.00;;;11.07;;
3971;SDS011;2000;47.572;14.202;2022-12-16T18:37:21;15.67;;;9.70;;
3971;SDS011;2000;47.572;14.202;2022-12-16T18:40:06;11.17;;;6.77;;
3971;SDS011;2000;47.572;14.202;2022-12-16T18:42:52;17.70;;;7.10;;
3971;SDS011;2000;47.572;14.202;2022-12-16T18:45:38;10.80;;;5.93;;
3971;SDS011;2000;47.572;14.202;2022-12-16T18:48:23;10.07;;;7.17;;